createdAt,value
2019-03-28T00:00:51.156Z,88.40
2019-03-28T00:05:54.844Z,142.53
2019-03-28T00:10:58.556Z,27.57
2019-03-28T00:16:02.388Z,100.13
2019-03-28T00:26:10.534Z,20.37
2019-03-28T00:31:14.455Z,14.80
2019-03-28T00:36:18.300Z,12.33
2019-03-28T00:41:21.965Z,11.80
2019-03-28T00:46:25.841Z,12.20
2019-03-28T00:51:29.547Z,11.50
2019-03-28T00:56:44.967Z,10.73
2019-03-28T01:01:38.710Z,11.28
2019-03-28T01:06:42.453Z,10.60
2019-03-28T01:16:51.540Z,9.97
2019-03-28T01:21:55.320Z,9.83
2019-03-28T01:26:59.292Z,10.67
2019-03-28T01:32:02.859Z,10.93
2019-03-28T01:37:06.575Z,9.57
2019-03-28T01:42:10.285Z,9.37
2019-03-28T01:47:13.988Z,9.60
2019-03-28T01:52:17.622Z,9.40
2019-03-28T01:57:21.353Z,9.67
2019-03-28T02:12:32.511Z,9.57
2019-03-28T02:17:47.287Z,8.73
2019-03-28T02:22:50.843Z,10.17
2019-03-28T02:27:54.482Z,8.63
2019-03-28T02:38:01.653Z,9.37
2019-03-28T02:43:05.743Z,8.77
2019-03-28T02:48:09.405Z,9.13
2019-03-28T02:58:17.500Z,9.83
2019-03-28T03:08:24.670Z,8.30
2019-03-28T03:13:28.405Z,8.73
2019-03-28T03:18:32.052Z,8.70
2019-03-28T03:23:35.646Z,8.47
2019-03-28T03:28:39.380Z,9.03
2019-03-28T03:33:43.826Z,9.10
2019-03-28T03:38:47.973Z,8.27
2019-03-28T03:43:51.614Z,8.57
2019-03-28T03:48:55.352Z,9.13
2019-03-28T03:53:58.977Z,8.73
2019-03-28T03:59:02.649Z,9.13
2019-03-28T04:04:06.335Z,8.37
2019-03-28T04:09:09.880Z,8.17
2019-03-28T04:14:13.607Z,9.63
2019-03-28T04:19:17.361Z,8.73
2019-03-28T04:24:21.825Z,8.00
2019-03-28T04:29:25.588Z,8.03
2019-03-28T04:34:29.281Z,8.00
2019-03-28T04:39:32.839Z,7.50
2019-03-28T04:44:36.474Z,7.37
2019-03-28T04:49:41.023Z,7.40
2019-03-28T04:54:44.641Z,7.30
2019-03-28T04:59:48.399Z,7.67
2019-03-28T05:04:52.033Z,7.30
2019-03-28T05:09:55.624Z,7.63
2019-03-28T05:14:59.310Z,6.80
2019-03-28T05:20:02.862Z,7.50
2019-03-28T05:25:06.489Z,7.70
2019-03-28T05:35:13.675Z,6.93
2019-03-28T05:40:17.405Z,6.73
2019-03-28T05:45:21.023Z,6.83
2019-03-28T05:50:24.616Z,6.60
2019-03-28T05:55:28.311Z,6.13
2019-03-28T06:00:31.968Z,6.50
2019-03-28T06:05:35.589Z,7.00
2019-03-28T06:10:40.291Z,6.60
2019-03-28T06:15:43.840Z,6.77
2019-03-28T06:20:47.475Z,7.07
2019-03-28T06:30:55.878Z,7.47
2019-03-28T06:36:02.121Z,6.60
2019-03-28T06:41:04.984Z,6.80
2019-03-28T06:46:08.617Z,6.50
2019-03-28T06:51:12.307Z,6.90
2019-03-28T06:56:17.430Z,6.90
2019-03-28T07:01:21.271Z,7.43
2019-03-28T07:06:24.849Z,7.30
2019-03-28T07:11:28.554Z,6.93
2019-03-28T07:16:32.399Z,7.80
2019-03-28T07:21:36.878Z,7.30
2019-03-28T07:26:40.514Z,7.43
2019-03-28T07:36:47.627Z,7.40
2019-03-28T07:41:51.326Z,7.77
2019-03-28T07:46:54.981Z,7.00
2019-03-28T07:51:58.630Z,7.03
2019-03-28T07:57:02.342Z,7.03
2019-03-28T08:02:06.011Z,6.90
2019-03-28T08:07:09.627Z,7.07
2019-03-28T08:12:22.334Z,7.77
2019-03-28T08:17:18.674Z,6.83
2019-03-28T08:22:43.295Z,7.55
2019-03-28T08:27:46.952Z,7.12
2019-03-28T08:32:50.702Z,8.60
2019-03-28T08:48:02.672Z,13.37
2019-03-28T08:53:08.779Z,14.07
2019-03-28T08:58:12.763Z,12.90
2019-03-28T09:03:16.693Z,12.50
2019-03-28T09:08:20.415Z,12.30
2019-03-28T09:13:24.335Z,11.27
2019-03-28T09:18:28.066Z,10.80
2019-03-28T09:23:31.719Z,10.57
2019-03-28T09:28:35.694Z,11.27
2019-03-28T09:33:40.943Z,10.70
2019-03-28T09:38:44.856Z,11.57
2019-03-28T09:43:55.305Z,11.03
2019-03-28T09:48:54.271Z,10.43
2019-03-28T09:53:57.862Z,10.70
2019-03-28T09:59:02.022Z,10.23
2019-03-28T10:04:06.604Z,10.67
2019-03-28T10:09:10.546Z,10.83
2019-03-28T10:14:14.282Z,11.47
2019-03-28T10:19:17.960Z,10.93
2019-03-28T10:24:21.714Z,11.43
2019-03-28T10:29:25.644Z,11.33
2019-03-28T10:34:29.274Z,11.30
2019-03-28T10:44:36.708Z,11.63
2019-03-28T10:49:41.472Z,11.17
2019-03-28T10:54:45.549Z,12.17
2019-03-28T10:59:49.288Z,11.17
2019-03-28T11:04:52.927Z,10.77
2019-03-28T11:09:56.614Z,10.90
2019-03-28T11:15:00.429Z,11.40
2019-03-28T11:25:07.754Z,11.03
2019-03-28T11:30:11.807Z,10.77
2019-03-28T11:35:15.725Z,10.83
2019-03-28T11:40:19.729Z,12.10
2019-03-28T11:45:26.938Z,10.87
2019-03-28T11:50:29.418Z,11.60
2019-03-28T12:00:36.648Z,12.20
2019-03-28T12:05:40.471Z,12.37
2019-03-28T12:15:47.711Z,11.43
2019-03-28T12:20:51.317Z,11.67
2019-03-28T12:25:55.015Z,11.12
2019-03-28T12:30:58.632Z,11.78
2019-03-28T12:41:06.394Z,11.37
2019-03-28T12:46:10.042Z,12.00
2019-03-28T12:51:13.731Z,12.13
2019-03-28T12:56:17.658Z,11.63
2019-03-28T13:01:21.537Z,11.50
2019-03-28T13:11:28.702Z,11.07
2019-03-28T13:16:32.738Z,11.80
2019-03-28T13:21:37.580Z,11.53
2019-03-28T13:26:41.393Z,11.40
2019-03-28T13:31:45.045Z,11.35
2019-03-28T13:36:48.721Z,12.03
2019-03-28T13:41:52.749Z,11.37
2019-03-28T13:51:59.787Z,10.53
2019-03-28T14:02:07.334Z,11.30
2019-03-28T14:07:11.006Z,10.50
2019-03-28T14:12:14.647Z,10.60
2019-03-28T14:17:20.571Z,11.47
2019-03-28T14:22:27.619Z,12.80
2019-03-28T14:27:46.808Z,147.35
2019-03-28T14:32:53.661Z,96.60
2019-03-28T14:42:59.798Z,199.25
2019-03-28T14:48:06.860Z,155.03
2019-03-28T14:53:09.898Z,138.30
2019-03-28T14:58:13.621Z,87.80
2019-03-28T15:08:22.374Z,89.80
2019-03-28T15:13:26.299Z,96.87
2019-03-28T15:18:31.030Z,144.27
2019-03-28T15:23:34.856Z,151.45
2019-03-28T15:28:38.678Z,135.00
2019-03-28T15:33:42.711Z,291.97
2019-03-28T15:38:46.525Z,277.97
2019-03-28T15:43:50.380Z,126.57
2019-03-28T15:53:57.504Z,63.20
2019-03-28T15:59:02.138Z,146.60
2019-03-28T16:04:13.131Z,193.97
2019-03-28T16:09:18.416Z,296.55
2019-03-28T16:14:22.174Z,179.47
2019-03-28T16:19:25.790Z,84.00
2019-03-28T16:24:29.823Z,128.70
2019-03-28T16:29:33.930Z,246.13
2019-03-28T16:34:37.987Z,184.07
2019-03-28T16:39:41.690Z,211.53
2019-03-28T16:44:45.708Z,231.23
2019-03-28T16:49:49.941Z,241.73
2019-03-28T16:54:53.685Z,305.80
2019-03-28T16:59:57.610Z,344.70
2019-03-28T17:05:05.729Z,204.80
2019-03-28T17:10:09.814Z,249.23
2019-03-28T17:15:13.625Z,290.83
2019-03-28T17:20:17.445Z,352.47
2019-03-28T17:25:21.648Z,213.93
2019-03-28T17:30:26.243Z,153.10
2019-03-28T17:35:30.953Z,119.67
2019-03-28T17:40:36.777Z,75.07
2019-03-28T17:45:40.134Z,55.88
2019-03-28T17:50:43.984Z,265.80
2019-03-28T17:55:47.769Z,178.53
2019-03-28T18:00:51.810Z,154.73
2019-03-28T18:05:58.803Z,459.33
2019-03-28T18:16:10.427Z,306.20
2019-03-28T18:21:16.224Z,336.10
2019-03-28T18:26:21.883Z,136.27
2019-03-28T18:31:27.634Z,61.53
2019-03-28T18:36:33.502Z,32.23
2019-03-28T18:41:39.289Z,25.10
2019-03-28T18:46:44.837Z,20.30
2019-03-28T18:51:50.494Z,17.73
2019-03-28T19:02:01.776Z,15.43
2019-03-28T19:07:07.690Z,15.73
2019-03-28T19:12:13.456Z,14.87
2019-03-28T19:17:19.278Z,14.58
2019-03-28T19:22:24.959Z,13.47
2019-03-28T19:27:30.666Z,13.77
2019-03-28T19:32:36.339Z,12.58
2019-03-28T19:37:42.395Z,12.27
2019-03-28T19:47:54.032Z,35.27
2019-03-28T19:53:00.118Z,64.63
2019-03-28T19:58:05.756Z,70.30
2019-03-28T20:08:18.380Z,230.30
2019-03-28T20:13:24.591Z,129.97
2019-03-28T20:18:31.680Z,329.13
2019-03-28T20:23:37.459Z,401.87
2019-03-28T20:28:59.105Z,407.07
2019-03-28T20:34:04.862Z,323.10
2019-03-28T20:39:12.269Z,332.80
2019-03-28T20:44:18.210Z,344.17
2019-03-28T20:49:25.834Z,267.27
2019-03-28T20:54:32.184Z,452.37
2019-03-28T20:59:37.878Z,421.03
2019-03-28T21:09:49.719Z,362.03
2019-03-28T21:14:55.589Z,397.67
2019-03-28T21:20:01.398Z,270.27
2019-03-28T21:25:07.105Z,315.23
2019-03-28T21:30:12.804Z,317.33
2019-03-28T21:35:18.789Z,377.63
2019-03-28T21:40:25.075Z,394.62
2019-03-28T21:45:31.862Z,399.17
2019-03-28T21:50:42.033Z,380.60
2019-03-28T21:55:55.114Z,482.53
2019-03-28T22:00:57.381Z,366.23
2019-03-28T22:06:02.903Z,252.80
2019-03-28T22:11:08.642Z,223.83
2019-03-28T22:16:14.496Z,144.47
2019-03-28T22:21:19.905Z,212.37
2019-03-28T22:26:25.866Z,387.33
2019-03-28T22:31:31.749Z,335.77
2019-03-28T22:36:38.505Z,442.53
2019-03-28T22:41:44.501Z,343.37
2019-03-28T22:51:57.237Z,610.83
2019-03-28T22:57:04.736Z,491.53
2019-03-28T23:02:11.129Z,368.90
2019-03-28T23:07:16.781Z,437.10
2019-03-28T23:12:22.750Z,514.10
2019-03-28T23:17:28.974Z,487.83
2019-03-28T23:22:35.220Z,494.28
2019-03-28T23:27:40.902Z,663.87
2019-03-28T23:37:53.156Z,631.30
2019-03-28T23:43:00.605Z,595.80
2019-03-28T23:48:06.920Z,658.15
2019-03-28T23:53:12.667Z,724.87
2019-03-28T23:58:18.533Z,705.37
